sensor_id;sensor_type;location;lat;lon;timestamp;P1;durP1;ratioP1;P2;durP2;ratioP2
21731;SDS011;11028;51.156;17.130;2022-09-28T00:02:59;5.97;;;4.00;;
21731;SDS011;11028;51.156;17.130;2022-09-28T00:10:16;6.40;;;4.18;;
21731;SDS011;11028;51.156;17.130;2022-09-28T00:17:39;8.77;;;4.32;;
21731;SDS011;11028;51.156;17.130;2022-09-28T00:24:56;8.05;;;4.00;;
21731;SDS011;11028;51.156;17.130;2022-09-28T00:32:16;6.35;;;3.70;;
21731;SDS011;11028;51.156;17.130;2022-09-28T00:39:38;6.32;;;3.95;;
21731;SDS011;11028;51.156;17.130;2022-09-28T00:46:57;6.75;;;4.85;;
21731;SDS011;11028;51.156;17.130;2022-09-28T00:54:18;7.82;;;5.10;;
21731;SDS011;11028;51.156;17.130;2022-09-28T01:01:40;7.38;;;4.97;;
21731;SDS011;11028;51.156;17.130;2022-09-28T01:08:59;6.45;;;4.68;;
21731;SDS011;11028;51.156;17.130;2022-09-28T01:16:23;6.20;;;4.65;;
21731;SDS011;11028;51.156;17.130;2022-09-28T01:31:33;7.68;;;6.03;;
21731;SDS011;11028;51.156;17.130;2022-09-28T01:38:52;7.90;;;5.82;;
21731;SDS011;11028;51.156;17.130;2022-09-28T01:46:13;10.52;;;6.22;;
21731;SDS011;11028;51.156;17.130;2022-09-28T01:53:34;8.25;;;6.47;;
21731;SDS011;11028;51.156;17.130;2022-09-28T02:00:56;9.23;;;6.78;;
21731;SDS011;11028;51.156;17.130;2022-09-28T02:08:17;14.10;;;7.50;;
21731;SDS011;11028;51.156;17.130;2022-09-28T02:15:42;10.43;;;7.00;;
21731;SDS011;11028;51.156;17.130;2022-09-28T02:23:05;9.88;;;7.30;;
21731;SDS011;11028;51.156;17.130;2022-09-28T02:30:23;10.98;;;7.57;;
21731;SDS011;11028;51.156;17.130;2022-09-28T02:37:42;12.25;;;7.40;;
21731;SDS011;11028;51.156;17.130;2022-09-28T02:45:01;12.23;;;7.93;;
21731;SDS011;11028;51.156;17.130;2022-09-28T02:52:31;12.25;;;8.15;;
21731;SDS011;11028;51.156;17.130;2022-09-28T03:00:01;12.20;;;8.23;;
21731;SDS011;11028;51.156;17.130;2022-09-28T03:07:23;13.05;;;8.90;;
21731;SDS011;11028;51.156;17.130;2022-09-28T03:14:41;14.45;;;9.18;;
21731;SDS011;11028;51.156;17.130;2022-09-28T03:22:00;13.52;;;8.90;;
21731;SDS011;11028;51.156;17.130;2022-09-28T03:29:17;13.50;;;8.45;;
21731;SDS011;11028;51.156;17.130;2022-09-28T03:36:40;13.07;;;9.40;;
21731;SDS011;11028;51.156;17.130;2022-09-28T03:43:58;16.25;;;10.25;;
21731;SDS011;11028;51.156;17.130;2022-09-28T03:51:18;12.20;;;8.90;;
21731;SDS011;11028;51.156;17.130;2022-09-28T03:58:35;17.02;;;9.82;;
21731;SDS011;11028;51.156;17.130;2022-09-28T04:05:55;13.80;;;9.50;;
21731;SDS011;11028;51.156;17.130;2022-09-28T04:13:12;13.55;;;9.55;;
21731;SDS011;11028;51.156;17.130;2022-09-28T04:20:30;13.27;;;9.45;;
21731;SDS011;11028;51.156;17.130;2022-09-28T04:27:53;12.95;;;9.85;;
21731;SDS011;11028;51.156;17.130;2022-09-28T04:35:29;14.80;;;9.82;;
21731;SDS011;11028;51.156;17.130;2022-09-28T04:42:53;13.52;;;10.40;;
21731;SDS011;11028;51.156;17.130;2022-09-28T04:50:10;16.38;;;11.15;;
21731;SDS011;11028;51.156;17.130;2022-09-28T04:57:47;14.35;;;10.57;;
21731;SDS011;11028;51.156;17.130;2022-09-28T05:05:06;23.25;;;15.93;;
21731;SDS011;11028;51.156;17.130;2022-09-28T05:12:44;14.73;;;9.63;;
21731;SDS011;11028;51.156;17.130;2022-09-28T05:20:01;12.95;;;10.00;;
21731;SDS011;11028;51.156;17.130;2022-09-28T05:27:21;15.88;;;9.50;;
21731;SDS011;11028;51.156;17.130;2022-09-28T05:34:48;12.13;;;9.27;;
21731;SDS011;11028;51.156;17.130;2022-09-28T05:42:14;18.08;;;9.75;;
21731;SDS011;11028;51.156;17.130;2022-09-28T05:49:33;14.43;;;9.02;;
21731;SDS011;11028;51.156;17.130;2022-09-28T05:56:50;10.18;;;8.88;;
21731;SDS011;11028;51.156;17.130;2022-09-28T06:04:07;13.27;;;9.05;;
21731;SDS011;11028;51.156;17.130;2022-09-28T06:11:27;10.18;;;7.10;;
21731;SDS011;11028;51.156;17.130;2022-09-28T06:18:48;11.15;;;6.53;;
21731;SDS011;11028;51.156;17.130;2022-09-28T06:26:24;12.13;;;6.47;;
21731;SDS011;11028;51.156;17.130;2022-09-28T06:33:42;7.32;;;5.82;;
21731;SDS011;11028;51.156;17.130;2022-09-28T06:40:59;6.88;;;4.72;;
21731;SDS011;11028;51.156;17.130;2022-09-28T06:48:16;6.97;;;4.72;;
21731;SDS011;11028;51.156;17.130;2022-09-28T06:55:37;6.88;;;4.80;;
21731;SDS011;11028;51.156;17.130;2022-09-28T07:02:54;5.97;;;5.38;;
21731;SDS011;11028;51.156;17.130;2022-09-28T07:10:26;6.22;;;4.63;;
21731;SDS011;11028;51.156;17.130;2022-09-28T07:17:58;8.60;;;4.72;;
21731;SDS011;11028;51.156;17.130;2022-09-28T07:25:17;49.53;;;25.52;;
21731;SDS011;11028;51.156;17.130;2022-09-28T07:32:50;5.30;;;3.50;;
21731;SDS011;11028;51.156;17.130;2022-09-28T07:40:15;6.05;;;3.78;;
21731;SDS011;11028;51.156;17.130;2022-09-28T07:47:53;6.55;;;4.00;;
21731;SDS011;11028;51.156;17.130;2022-09-28T07:55:13;4.72;;;3.50;;
21731;SDS011;11028;51.156;17.130;2022-09-28T08:02:51;4.50;;;2.90;;
21731;SDS011;11028;51.156;17.130;2022-09-28T08:10:13;4.68;;;3.08;;
21731;SDS011;11028;51.156;17.130;2022-09-28T08:17:34;5.32;;;3.20;;
21731;SDS011;11028;51.156;17.130;2022-09-28T08:24:56;5.57;;;3.33;;
21731;SDS011;11028;51.156;17.130;2022-09-28T08:32:12;4.93;;;2.90;;
21731;SDS011;11028;51.156;17.130;2022-09-28T08:40:07;4.00;;;2.30;;
21731;SDS011;11028;51.156;17.130;2022-09-28T08:47:47;4.22;;;2.13;;
21731;SDS011;11028;51.156;17.130;2022-09-28T08:55:31;4.30;;;2.53;;
21731;SDS011;11028;51.156;17.130;2022-09-28T09:02:51;4.90;;;2.13;;
21731;SDS011;11028;51.156;17.130;2022-09-28T09:10:16;2.50;;;2.30;;
21731;SDS011;11028;51.156;17.130;2022-09-28T09:17:48;4.17;;;2.40;;
21731;SDS011;11028;51.156;17.130;2022-09-28T09:25:20;2.67;;;2.47;;
21731;SDS011;11028;51.156;17.130;2022-09-28T09:41:04;2.42;;;1.90;;
21731;SDS011;11028;51.156;17.130;2022-09-28T09:48:45;9.00;;;3.47;;
21731;SDS011;11028;51.156;17.130;2022-09-28T09:56:09;2.65;;;2.33;;
21731;SDS011;11028;51.156;17.130;2022-09-28T10:03:53;2.25;;;1.50;;
21731;SDS011;11028;51.156;17.130;2022-09-28T10:11:13;1.40;;;1.30;;
21731;SDS011;11028;51.156;17.130;2022-09-28T10:18:36;1.58;;;1.30;;
21731;SDS011;11028;51.156;17.130;2022-09-28T10:26:15;1.33;;;1.20;;
21731;SDS011;11028;51.156;17.130;2022-09-28T10:33:39;2.15;;;1.15;;
21731;SDS011;11028;51.156;17.130;2022-09-28T10:40:57;1.85;;;0.80;;
21731;SDS011;11028;51.156;17.130;2022-09-28T10:48:25;3.78;;;1.02;;
21731;SDS011;11028;51.156;17.130;2022-09-28T10:55:44;2.25;;;0.80;;
21731;SDS011;11028;51.156;17.130;2022-09-28T11:03:17;1.30;;;0.90;;
21731;SDS011;11028;51.156;17.130;2022-09-28T11:10:38;2.87;;;1.00;;
21731;SDS011;11028;51.156;17.130;2022-09-28T11:18:16;3.40;;;1.13;;
21731;SDS011;11028;51.156;17.130;2022-09-28T11:25:38;7.10;;;1.67;;
21731;SDS011;11028;51.156;17.130;2022-09-28T11:33:00;2.58;;;1.40;;
21731;SDS011;11028;51.156;17.130;2022-09-28T11:40:48;1.77;;;1.10;;
21731;SDS011;11028;51.156;17.130;2022-09-28T11:48:11;2.72;;;1.10;;
21731;SDS011;11028;51.156;17.130;2022-09-28T11:55:31;1.05;;;0.90;;
21731;SDS011;11028;51.156;17.130;2022-09-28T12:02:54;1.15;;;0.90;;
21731;SDS011;11028;51.156;17.130;2022-09-28T12:10:18;2.28;;;1.20;;
21731;SDS011;11028;51.156;17.130;2022-09-28T12:17:41;4.53;;;1.30;;
21731;SDS011;11028;51.156;17.130;2022-09-28T12:25:02;11.70;;;5.85;;
21731;SDS011;11028;51.156;17.130;2022-09-28T12:32:23;11.77;;;7.55;;
21731;SDS011;11028;51.156;17.130;2022-09-28T12:39:45;3.15;;;1.75;;
21731;SDS011;11028;51.156;17.130;2022-09-28T12:47:17;5.70;;;2.10;;
21731;SDS011;11028;51.156;17.130;2022-09-28T12:54:49;4.50;;;2.35;;
21731;SDS011;11028;51.156;17.130;2022-09-28T13:02:43;4.40;;;3.13;;
21731;SDS011;11028;51.156;17.130;2022-09-28T13:10:12;7.85;;;3.97;;
21731;SDS011;11028;51.156;17.130;2022-09-28T13:24:55;10.18;;;5.10;;
21731;SDS011;11028;51.156;17.130;2022-09-28T13:32:17;12.13;;;4.05;;
21731;SDS011;11028;51.156;17.130;2022-09-28T13:39:35;7.07;;;3.05;;
21731;SDS011;11028;51.156;17.130;2022-09-28T13:54:36;2.20;;;1.20;;
21731;SDS011;11028;51.156;17.130;2022-09-28T14:02:03;2.00;;;1.52;;
21731;SDS011;11028;51.156;17.130;2022-09-28T14:09:44;2.55;;;1.80;;
21731;SDS011;11028;51.156;17.130;2022-09-28T14:25:06;5.75;;;2.45;;
21731;SDS011;11028;51.156;17.130;2022-09-28T14:32:30;4.40;;;3.30;;
21731;SDS011;11028;51.156;17.130;2022-09-28T14:39:51;7.18;;;4.45;;
21731;SDS011;11028;51.156;17.130;2022-09-28T14:47:33;7.53;;;5.30;;
21731;SDS011;11028;51.156;17.130;2022-09-28T14:54:52;8.80;;;5.30;;
21731;SDS011;11028;51.156;17.130;2022-09-28T15:02:12;9.88;;;5.93;;
21731;SDS011;11028;51.156;17.130;2022-09-28T15:09:34;10.47;;;6.43;;
21731;SDS011;11028;51.156;17.130;2022-09-28T15:16:52;9.50;;;5.93;;
21731;SDS011;11028;51.156;17.130;2022-09-28T15:24:25;7.15;;;4.13;;
21731;SDS011;11028;51.156;17.130;2022-09-28T15:31:47;8.30;;;4.43;;
21731;SDS011;11028;51.156;17.130;2022-09-28T15:39:04;5.10;;;3.55;;
21731;SDS011;11028;51.156;17.130;2022-09-28T15:46:26;7.82;;;4.00;;
21731;SDS011;11028;51.156;17.130;2022-09-28T15:53:47;3.40;;;2.13;;
21731;SDS011;11028;51.156;17.130;2022-09-28T16:01:19;3.42;;;2.35;;
21731;SDS011;11028;51.156;17.130;2022-09-28T16:08:41;3.05;;;2.05;;
21731;SDS011;11028;51.156;17.130;2022-09-28T16:16:00;4.30;;;3.10;;
21731;SDS011;11028;51.156;17.130;2022-09-28T16:23:22;4.03;;;2.67;;
21731;SDS011;11028;51.156;17.130;2022-09-28T16:30:43;5.05;;;2.92;;
21731;SDS011;11028;51.156;17.130;2022-09-28T16:45:33;10.43;;;3.13;;
21731;SDS011;11028;51.156;17.130;2022-09-28T16:52:55;5.28;;;3.47;;
21731;SDS011;11028;51.156;17.130;2022-09-28T17:00:33;6.88;;;3.90;;
21731;SDS011;11028;51.156;17.130;2022-09-28T17:07:53;11.95;;;6.35;;
21731;SDS011;11028;51.156;17.130;2022-09-28T17:15:15;8.90;;;4.80;;
21731;SDS011;11028;51.156;17.130;2022-09-28T17:22:35;6.78;;;4.30;;
21731;SDS011;11028;51.156;17.130;2022-09-28T17:29:54;10.63;;;5.60;;
21731;SDS011;11028;51.156;17.130;2022-09-28T17:37:11;10.40;;;6.25;;
21731;SDS011;11028;51.156;17.130;2022-09-28T17:44:31;10.05;;;5.50;;
21731;SDS011;11028;51.156;17.130;2022-09-28T17:51:48;11.48;;;6.05;;
21731;SDS011;11028;51.156;17.130;2022-09-28T17:59:11;11.48;;;7.47;;
21731;SDS011;11028;51.156;17.130;2022-09-28T18:06:30;9.85;;;5.97;;
21731;SDS011;11028;51.156;17.130;2022-09-28T18:13:48;16.67;;;9.90;;
21731;SDS011;11028;51.156;17.130;2022-09-28T18:21:06;11.52;;;7.28;;
21731;SDS011;11028;51.156;17.130;2022-09-28T18:28:25;12.48;;;6.15;;
21731;SDS011;11028;51.156;17.130;2022-09-28T18:35:48;14.48;;;8.85;;
21731;SDS011;11028;51.156;17.130;2022-09-28T18:43:12;13.65;;;8.05;;
21731;SDS011;11028;51.156;17.130;2022-09-28T18:50:37;12.18;;;8.07;;
21731;SDS011;11028;51.156;17.130;2022-09-28T18:58:05;15.65;;;8.40;;
21731;SDS011;11028;51.156;17.130;2022-09-28T19:05:23;12.52;;;7.65;;
21731;SDS011;11028;51.156;17.130;2022-09-28T19:28:59;19.83;;;8.95;;
21731;SDS011;11028;51.156;17.130;2022-09-28T19:36:20;13.73;;;7.43;;
21731;SDS011;11028;51.156;17.130;2022-09-28T19:43:55;8.68;;;5.40;;
21731;SDS011;11028;51.156;17.130;2022-09-28T19:51:36;9.88;;;5.55;;
21731;SDS011;11028;51.156;17.130;2022-09-28T21:04:34;12.32;;;8.25;;
21731;SDS011;11028;51.156;17.130;2022-09-28T21:12:06;12.00;;;7.30;;
21731;SDS011;11028;51.156;17.130;2022-09-28T21:19:42;12.73;;;8.27;;
21731;SDS011;11028;51.156;17.130;2022-09-28T21:27:02;12.65;;;7.28;;
21731;SDS011;11028;51.156;17.130;2022-09-28T21:34:22;14.00;;;7.93;;
21731;SDS011;11028;51.156;17.130;2022-09-28T21:41:45;15.55;;;8.68;;
21731;SDS011;11028;51.156;17.130;2022-09-28T21:49:41;13.80;;;8.65;;
21731;SDS011;11028;51.156;17.130;2022-09-28T22:31:09;13.05;;;8.05;;
21731;SDS011;11028;51.156;17.130;2022-09-28T22:47:09;10.98;;;6.75;;
21731;SDS011;11028;51.156;17.130;2022-09-28T22:54:39;10.68;;;6.97;;
21731;SDS011;11028;51.156;17.130;2022-09-28T23:02:07;12.23;;;7.43;;
21731;SDS011;11028;51.156;17.130;2022-09-28T23:17:16;12.50;;;7.72;;
21731;SDS011;11028;51.156;17.130;2022-09-28T23:24:43;11.70;;;7.13;;
21731;SDS011;11028;51.156;17.130;2022-09-28T23:32:03;8.55;;;6.25;;
21731;SDS011;11028;51.156;17.130;2022-09-28T23:39:21;7.68;;;5.68;;
21731;SDS011;11028;51.156;17.130;2022-09-28T23:46:40;9.07;;;6.03;;
21731;SDS011;11028;51.156;17.130;2022-09-28T23:54:11;7.70;;;5.35;;
